Time;durP1;ratioP1;P1;durP2;ratioP2;P2;SDS_P1;SDS_P2;PMS_P1;PMS_P2;Temp;Humidity;BMP_temperature;BMP_pressure;BME280_temperature;BME280_humidity;BME280_pressure;Samples;Min_cycle;Max_cycle;Signal;HPM_P1;HPM_P2
2021/11/16 00:02:09;;;;;;;29.88;13.48;;;;;;;5.11;87.80;100826.91;4791359;29;20051;-63
2021/11/16 00:05:10;;;;;;;28.52;12.50;;;;;;;5.10;87.98;100812.56;4820579;29;20050;-61
2021/11/16 00:08:01;;;;;;;24.52;12.27;;;;;;;5.13;88.17;100825.31;4811474;29;20062;-62
2021/11/16 00:10:58;;;;;;;26.42;11.38;;;;;;;4.99;87.68;100831.47;4819257;29;20042;-62
2021/11/16 00:14:13;;;;;;;20.10;11.45;;;;;;;4.78;87.94;100815.44;4810857;29;20050;-62
2021/11/16 00:17:28;;;;;;;23.63;12.27;;;;;;;4.89;88.05;100814.25;4819732;29;20417;-63
2021/11/16 00:20:39;;;;;;;24.27;11.13;;;;;;;5.06;87.91;100828.38;4801189;29;20072;-62
2021/11/16 00:23:42;;;;;;;24.02;11.57;;;;;;;5.09;88.35;100828.53;4810503;29;20057;-63
2021/11/16 00:26:51;;;;;;;27.00;12.27;;;;;;;5.08;88.34;100825.94;4814058;29;20050;-61
2021/11/16 00:30:26;;;;;;;23.13;11.43;;;;;;;5.17;88.33;100822.09;4807187;29;20050;-61
2021/11/16 00:34:08;;;;;;;;;;;;;;;;;;;;;
2021/11/16 00:37:50;;;;;;;22.75;10.65;;;;;;;5.13;88.28;100824.47;4808375;29;20082;-62
2021/11/16 00:41:36;;;;;;;24.13;11.90;;;;;;;4.77;87.41;100828.91;4804552;29;20471;-62
2021/11/16 00:45:48;;;;;;;24.27;11.27;;;;;;;4.95;88.04;100824.59;4785218;29;20059;-62
2021/11/16 00:52:44;;;;;;;23.77;11.63;;;;;;;4.68;87.87;100818.41;4821063;29;20074;-62
2021/11/16 00:58:46;;;;;;;24.38;12.20;;;;;;;4.64;87.67;100827.53;4807199;29;20067;-62
2021/11/16 01:02:15;;;;;;;25.15;11.63;;;;;;;4.63;87.76;100827.50;4808980;29;20066;-63
2021/11/16 01:05:57;;;;;;;28.20;12.23;;;;;;;4.55;88.15;100812.00;4818033;29;20378;-62
2021/11/16 01:08:57;;;;;;;23.25;12.02;;;;;;;4.64;88.06;100814.91;4807156;29;20051;-62
2021/11/16 01:14:49;;;;;;;25.67;11.75;;;;;;;4.66;88.11;100799.78;4825153;29;20447;-62
2021/11/16 01:17:50;;;;;;;26.63;12.15;;;;;;;4.80;88.04;100807.94;4824277;29;20123;-62
2021/11/16 01:21:12;;;;;;;22.90;11.52;;;;;;;4.60;87.55;100817.25;4823921;29;20076;-61
2021/11/16 01:24:13;;;;;;;27.75;12.05;;;;;;;4.52;87.63;100806.81;4824047;29;20078;-61
2021/11/16 01:27:39;;;;;;;26.38;11.32;;;;;;;4.47;87.96;100804.88;4815031;29;20082;-62
2021/11/16 01:31:01;;;;;;;25.77;12.93;;;;;;;4.40;88.35;100795.31;4816986;29;20050;-62
2021/11/16 01:38:49;;;;;;;26.10;12.50;;;;;;;4.51;87.40;100789.91;4789703;29;20105;-62
2021/11/16 01:42:29;;;;;;;28.42;11.88;;;;;;;4.50;88.04;100787.31;4795014;29;20047;-62
2021/11/16 01:49:04;;;;;;;23.33;11.02;;;;;;;4.21;87.74;100777.66;4800679;29;20061;-62
2021/11/16 01:52:09;;;;;;;20.95;11.30;;;;;;;4.11;87.54;100776.41;4789151;30;20063;-62
2021/11/16 01:55:37;;;;;;;24.15;12.90;;;;;;;4.19;88.39;100769.16;4783617;29;20055;-62
2021/11/16 02:01:45;;;;;;;22.10;10.80;;;;;;;4.19;87.69;100761.59;4780745;29;20479;-62
2021/11/16 02:04:49;;;;;;;21.83;10.27;;;;;;;4.22;88.02;100764.25;4790669;29;20075;-62
2021/11/16 02:14:55;;;;;;;24.23;10.52;;;;;;;4.17;87.95;100763.19;4808432;29;20526;-62
2021/11/16 02:21:38;;;;;;;;;;;;;;;;;;;;;
2021/11/16 02:33:01;;;;;;;21.40;9.48;;;;;;;4.26;87.71;100753.47;4810995;29;20591;-62
2021/11/16 02:36:57;;;;;;;19.15;9.20;;;;;;;4.11;87.68;100745.22;4818359;29;20097;-62
2021/11/16 02:40:27;;;;;;;22.63;10.75;;;;;;;4.08;87.94;100746.84;4769149;29;20050;-62
2021/11/16 02:44:09;;;;;;;25.40;11.52;;;;;;;4.16;87.38;100749.69;4813547;29;20053;-63
2021/11/16 02:47:39;;;;;;;26.27;10.55;;;;;;;4.19;87.77;100748.94;4820264;29;20081;-63
2021/11/16 02:50:53;;;;;;;26.98;10.93;;;;;;;4.26;87.40;100748.41;4813627;29;20078;-63
2021/11/16 02:54:30;;;;;;;;;;;;;;;;;;;;;
2021/11/16 02:57:37;;;;;;;22.88;11.45;;;;;;;4.28;86.99;100734.16;4818147;29;20125;-63
2021/11/16 03:01:10;;;;;;;;;;;;;;;;;;;;;
2021/11/16 03:04:43;;;;;;;26.00;11.27;;;;;;;4.25;87.10;100734.91;4814422;29;20047;-62
2021/11/16 03:11:47;;;;;;;22.45;10.70;;;;;;;4.30;86.73;100737.63;4812538;29;20052;-62
2021/11/16 03:18:34;;;;;;;21.08;10.48;;;;;;;4.27;85.58;100732.47;4806624;29;20506;-62
2021/11/16 03:32:04;;;;;;;17.13;9.23;;;;;;;4.37;85.58;100745.50;4819755;29;20133;-62
2021/11/16 03:35:35;;;;;;;18.63;9.95;;;;;;;4.46;85.26;100750.09;4815938;29;20069;-62
2021/11/16 03:38:48;;;;;;;20.42;9.60;;;;;;;4.52;85.07;100750.34;4815073;29;20436;-61
2021/11/16 03:42:15;;;;;;;20.17;10.23;;;;;;;4.56;85.43;100752.16;4794545;29;20051;-62
2021/11/16 03:49:05;;;;;;;18.02;8.82;;;;;;;4.62;84.22;100748.25;4805691;29;20055;-62
2021/11/16 03:52:32;;;;;;;;;;;;;;;;;;;;;
2021/11/16 03:59:41;;;;;;;19.25;9.00;;;;;;;4.64;84.62;100748.28;4806973;29;20078;-62
2021/11/16 04:05:55;;;;;;;18.50;9.15;;;;;;;4.60;83.97;100749.84;4816779;29;20054;-62
2021/11/16 04:12:39;;;;;;;19.25;10.13;;;;;;;4.75;84.08;100750.44;4818348;29;20039;-62
2021/11/16 04:15:44;;;;;;;19.73;9.65;;;;;;;4.74;83.85;100748.75;4802245;29;20417;-62
2021/11/16 04:19:00;;;;;;;18.42;9.40;;;;;;;4.75;83.88;100744.53;4813122;29;20482;-64
2021/11/16 04:22:16;;;;;;;;;;;;;;;;;;;;;
2021/11/16 04:28:58;;;;;;;20.67;9.93;;;;;;;4.84;83.20;100728.84;4806350;29;20074;-61
2021/11/16 04:39:50;;;;;;;;;;;;;;;;;;;;;
2021/11/16 04:50:27;;;;;;;18.58;8.98;;;;;;;4.95;83.07;100731.00;4810839;29;20500;-62
2021/11/16 05:07:37;;;;;;;18.33;9.10;;;;;;;5.15;82.98;100736.81;4785806;29;20434;-61
2021/11/16 05:13:48;;;;;;;20.90;9.32;;;;;;;5.27;82.75;100733.09;4784170;29;20059;-63
2021/11/16 05:17:07;;;;;;;19.15;9.88;;;;;;;5.28;82.95;100738.97;4786420;29;20043;-62
2021/11/16 05:27:30;;;;;;;19.25;10.10;;;;;;;4.99;82.16;100722.72;4791133;29;20133;-62
2021/11/16 05:30:32;;;;;;;;;;;;;;;5.05;82.14;100730.53;4785487;29;20060;-61
2021/11/16 05:33:47;;;;;;;21.35;9.10;;;;;;;5.03;82.45;100734.69;4798159;29;19925;-68
2021/11/16 05:37:08;;;;;;;24.13;11.13;;;;;;;5.11;82.63;100735.81;4800485;29;20473;-63
2021/11/16 05:43:23;;;;;;;18.88;9.63;;;;;;;5.14;82.41;100724.97;4798848;29;20532;-62
2021/11/16 05:53:40;;;;;;;18.83;9.18;;;;;;;5.14;82.51;100725.81;4807645;29;20567;-62
2021/11/16 05:56:49;;;;;;;16.30;9.63;;;;;;;5.25;82.43;100743.97;4805359;29;20129;-62
2021/11/16 06:00:44;;;;;;;18.33;8.73;;;;;;;5.28;82.75;100744.03;4805052;29;20071;-63
2021/11/16 06:04:11;;;;;;;15.75;9.07;;;;;;;5.24;82.76;100725.38;4802087;29;20188;-62
2021/11/16 06:06:56;;;;;;;20.50;10.60;;;;;;;5.40;82.66;100745.38;4811082;29;20111;-62
2021/11/16 06:13:38;;;;;;;17.05;9.70;;;;;;;5.27;82.48;100748.28;4815554;29;20054;-62
2021/11/16 06:17:23;;;;;;;20.73;10.30;;;;;;;5.36;82.54;100758.72;4811213;29;20105;-63
2021/11/16 06:23:40;;;;;;;20.63;11.23;;;;;;;5.47;82.27;100765.88;4809113;29;20100;-62
2021/11/16 06:26:39;;;;;;;18.30;9.98;;;;;;;5.52;81.92;100765.19;4810390;29;20143;-62
2021/11/16 06:30:01;;;;;;;21.08;10.30;;;;;;;5.53;81.81;100756.81;4821969;29;20138;-63
2021/11/16 06:33:23;;;;;;;21.35;10.57;;;;;;;5.56;81.82;100756.94;4791171;29;20055;-62
2021/11/16 06:36:10;;;;;;;20.58;10.40;;;;;;;5.58;81.75;100759.50;4791468;29;20718;-63
2021/11/16 06:39:59;;;;;;;18.40;9.55;;;;;;;5.62;81.86;100761.34;4780901;29;20066;-63
2021/11/16 06:43:00;;;;;;;20.60;10.15;;;;;;;5.60;81.67;100752.81;4801069;29;20043;-63
2021/11/16 06:46:32;;;;;;;14.65;7.28;;;;;;;5.59;81.72;100754.50;4786032;29;20460;-62
2021/11/16 06:50:14;;;;;;;17.20;9.98;;;;;;;5.67;81.43;100755.63;4750697;30;20160;-63
2021/11/16 06:57:07;;;;;;;18.05;9.60;;;;;;;5.69;81.74;100758.22;4793857;29;20065;-62
2021/11/16 06:59:57;;;;;;;19.05;10.00;;;;;;;5.78;81.66;100753.50;4795223;29;20112;-62
2021/11/16 07:03:04;;;;;;;22.10;10.07;;;;;;;5.82;81.34;100750.25;4799102;29;20059;-64
2021/11/16 07:06:10;;;;;;;19.10;10.00;;;;;;;5.78;81.31;100751.81;4797310;29;20142;-62
2021/11/16 07:09:11;;;;;;;18.83;10.13;;;;;;;5.82;81.28;100757.84;4793005;29;20051;-63
2021/11/16 07:12:39;;;;;;;19.35;10.27;;;;;;;5.89;81.89;100757.31;4815591;29;20054;-62
2021/11/16 07:16:25;;;;;;;20.63;10.05;;;;;;;5.93;81.66;100754.91;4810316;29;20050;-63
2021/11/16 07:19:34;;;;;;;19.50;10.30;;;;;;;5.91;81.08;100756.53;4816747;29;20486;-63
2021/11/16 07:22:16;;;;;;;20.92;9.95;;;;;;;5.90;81.13;100749.75;4806765;29;20125;-62
2021/11/16 07:28:24;;;;;;;19.77;10.88;;;;;;;6.05;81.05;100751.94;4810857;29;20081;-61
2021/11/16 07:35:27;;;;;;;21.67;10.30;;;;;;;6.31;81.22;100755.38;4808387;29;20099;-62
2021/11/16 07:38:48;;;;;;;19.35;9.77;;;;;;;6.39;81.27;100746.34;4807780;29;20142;-62
2021/11/16 07:41:48;;;;;;;22.35;10.50;;;;;;;6.51;80.87;100746.75;4808448;29;20148;-65
2021/11/16 07:44:34;;;;;;;;;;;;;;;6.60;81.01;100747.91;4814505;29;20034;-63
2021/11/16 07:51:33;;;;;;;20.30;11.18;;;;;;;6.48;80.08;100750.03;4786891;30;20634;-63
2021/11/16 07:54:06;;;;;;;21.48;11.27;;;;;;;6.59;80.73;100745.31;4790828;29;20095;-62
2021/11/16 07:56:47;;;;;;;20.13;10.85;;;;;;;6.64;80.80;100749.75;4825836;29;20406;-62
2021/11/16 07:59:18;;;;;;;25.00;11.50;;;;;;;6.63;80.37;100742.94;4824858;29;20522;-62
2021/11/16 08:02:00;;;;;;;18.63;10.60;;;;;;;6.71;80.92;100746.59;4826488;29;20054;-62
2021/11/16 08:04:37;;;;;;;19.35;10.73;;;;;;;6.81;80.63;100747.75;4825664;29;20062;-62
2021/11/16 08:07:24;;;;;;;18.67;10.23;;;;;;;6.89;81.06;100745.41;4825897;29;20493;-62
2021/11/16 08:10:05;;;;;;;22.83;10.85;;;;;;;7.04;80.20;100743.34;4825830;29;20054;-62
2021/11/16 08:12:39;;;;;;;18.63;10.73;;;;;;;7.10;80.96;100741.00;4825795;29;20046;-62
2021/11/16 08:15:11;;;;;;;21.42;11.27;;;;;;;7.16;80.62;100736.09;4825482;29;20054;-62
2021/11/16 08:17:42;;;;;;;20.60;10.93;;;;;;;7.16;80.07;100725.94;4825547;29;20053;-62
2021/11/16 08:20:17;;;;;;;26.10;12.23;;;;;;;7.23;80.16;100735.47;4825724;29;20074;-62
2021/11/16 08:22:46;;;;;;;19.17;10.30;;;;;;;7.25;80.20;100732.16;4825138;29;20047;-62
2021/11/16 08:25:21;;;;;;;21.60;10.70;;;;;;;7.29;80.16;100723.81;4825599;29;20339;-62
2021/11/16 08:27:51;;;;;;;21.88;11.10;;;;;;;7.36;80.14;100730.81;4824650;29;20050;-63
2021/11/16 08:30:24;;;;;;;18.88;10.55;;;;;;;7.39;80.30;100715.66;4825345;29;20087;-62
2021/11/16 08:32:58;;;;;;;26.08;12.70;;;;;;;7.43;80.29;100722.56;4825438;29;20103;-62
2021/11/16 08:35:27;;;;;;;22.17;11.88;;;;;;;7.55;80.46;100727.13;4825032;29;20145;-62
2021/11/16 08:38:02;;;;;;;22.15;11.45;;;;;;;7.61;80.81;100727.28;4824999;29;20501;-62
2021/11/16 08:40:36;;;;;;;26.38;11.80;;;;;;;7.61;79.88;100717.09;4824873;29;20078;-62
2021/11/16 08:43:12;;;;;;;23.48;11.70;;;;;;;7.71;80.16;100716.53;4825145;29;20472;-61
2021/11/16 08:45:47;;;;;;;23.42;11.27;;;;;;;7.31;79.71;100645.16;4825220;29;20042;-61
2021/11/16 08:48:18;;;;;;;23.73;11.73;;;;;;;7.85;79.60;100716.91;4825094;29;20065;-62
2021/11/16 08:50:54;;;;;;;22.92;11.20;;;;;;;7.85;79.82;100712.69;4823751;29;20118;-62
2021/11/16 08:53:29;;;;;;;21.60;10.65;;;;;;;7.98;80.17;100713.88;4824913;29;20058;-63
2021/11/16 08:56:05;;;;;;;21.65;10.48;;;;;;;8.09;79.56;100728.59;4825062;29;20055;-62
2021/11/16 08:58:37;;;;;;;23.90;11.77;;;;;;;8.06;79.81;100725.97;4823010;29;20576;-62
2021/11/16 09:01:09;;;;;;;24.10;11.77;;;;;;;8.02;79.88;100706.38;4824872;29;20058;-62
2021/11/16 09:03:43;;;;;;;22.42;11.40;;;;;;;8.16;80.51;100719.44;4824765;29;20065;-62
2021/11/16 09:06:21;;;;;;;24.63;12.23;;;;;;;8.19;80.05;100718.66;4825068;29;20556;-62
2021/11/16 09:09:02;;;;;;;20.75;11.52;;;;;;;8.29;80.00;100718.09;4824933;29;20064;-62
2021/11/16 09:11:33;;;;;;;22.67;11.40;;;;;;;8.34;80.34;100719.06;4824679;29;20054;-62
2021/11/16 09:14:11;;;;;;;21.98;11.48;;;;;;;8.47;80.14;100713.47;4824480;29;20062;-62
2021/11/16 09:16:42;;;;;;;22.17;11.68;;;;;;;8.55;80.62;100709.41;4824542;29;20137;-62
2021/11/16 09:19:24;;;;;;;23.70;11.90;;;;;;;8.68;79.72;100717.38;4824337;29;20038;-62
2021/11/16 09:21:54;;;;;;;21.75;11.80;;;;;;;8.63;80.04;100697.75;4824525;29;20058;-62
2021/11/16 09:24:31;;;;;;;23.38;13.07;;;;;;;8.95;79.69;100719.69;4824340;29;20085;-62
2021/11/16 09:27:23;;;;;;;22.48;12.63;;;;;;;8.96;79.11;100713.78;4824331;29;20054;-62
2021/11/16 09:29:52;;;;;;;24.10;12.85;;;;;;;8.88;79.21;100694.91;4824622;29;20070;-62
2021/11/16 09:32:25;;;;;;;;;;;;;;;9.12;79.45;100715.81;4825077;29;20105;-62
2021/11/16 09:34:54;;;;;;;25.15;14.57;;;;;;;9.22;78.61;100717.75;4824393;29;19925;-62
2021/11/16 09:37:27;;;;;;;20.83;11.65;;;;;;;9.31;78.56;100717.94;4824235;29;20043;-62
2021/11/16 09:39:59;;;;;;;25.15;13.13;;;;;;;9.37;77.45;100722.31;4824492;29;20137;-62
2021/11/16 09:42:36;;;;;;;22.02;12.98;;;;;;;9.22;77.56;100692.28;4824124;29;20054;-62
2021/11/16 09:45:10;;;;;;;25.63;12.55;;;;;;;9.33;77.77;100710.34;4824004;29;20050;-62
2021/11/16 09:47:42;;;;;;;25.13;13.63;;;;;;;9.41;76.90;100704.56;4825206;29;20138;-62
2021/11/16 09:50:15;;;;;;;22.20;12.18;;;;;;;9.44;76.71;100714.81;4827725;29;20113;-62
2021/11/16 09:52:46;;;;;;;20.52;10.13;;;;;;;9.25;76.70;100687.25;4827643;29;20054;-62
2021/11/16 09:55:20;;;;;;;19.95;11.50;;;;;;;9.35;75.83;100704.44;4827816;29;20490;-62
2021/11/16 09:57:56;;;;;;;20.90;11.20;;;;;;;9.49;75.42;100698.75;4827403;29;20066;-62
2021/11/16 10:00:29;;;;;;;23.00;11.75;;;;;;;9.44;75.43;100702.09;4827221;29;20046;-62
2021/11/16 10:03:07;;;;;;;22.77;11.38;;;;;;;9.57;75.43;100693.00;4827784;29;20046;-62
2021/11/16 10:05:41;;;;;;;27.02;12.10;;;;;;;9.49;75.62;100694.53;4827809;29;20136;-62
2021/11/16 10:08:19;;;;;;;22.30;11.82;;;;;;;9.50;75.74;100692.84;4827689;29;20593;-62
2021/11/16 10:10:51;;;;;;;21.38;11.05;;;;;;;9.47;75.65;100687.69;4827675;29;20054;-62
2021/11/16 10:13:25;;;;;;;21.35;11.25;;;;;;;9.35;75.61;100675.56;4827638;29;20046;-62
2021/11/16 10:16:03;;;;;;;21.55;11.38;;;;;;;9.57;75.13;100684.50;4827628;29;20512;-62
2021/11/16 10:18:38;;;;;;;20.95;10.45;;;;;;;9.48;75.15;100666.47;4827267;29;20058;-62
2021/11/16 10:21:14;;;;;;;20.20;10.43;;;;;;;9.49;74.76;100650.34;4827269;29;20137;-62
2021/11/16 10:23:50;;;;;;;20.83;11.13;;;;;;;9.71;74.91;100670.31;4827318;29;20058;-62
2021/11/16 10:26:38;;;;;;;18.70;10.82;;;;;;;9.77;75.11;100655.09;4813408;29;20077;-62
2021/11/16 10:29:19;;;;;;;20.65;10.38;;;;;;;9.97;74.97;100657.19;4827432;29;20050;-62
2021/11/16 10:31:48;;;;;;;23.00;11.32;;;;;;;9.98;74.25;100647.88;4827060;29;20133;-62
2021/11/16 10:34:18;;;;;;;23.17;12.65;;;;;;;10.04;74.20;100653.06;4827040;29;20486;-62
2021/11/16 10:37:05;;;;;;;18.65;11.05;;;;;;;10.02;74.04;100644.53;4826926;29;20082;-62
2021/11/16 10:39:35;;;;;;;20.52;11.18;;;;;;;10.12;74.19;100646.44;4826819;29;20046;-62
2021/11/16 10:42:06;;;;;;;;;;;;;;;10.12;74.23;100641.34;4827705;29;20058;-62
2021/11/16 10:44:38;;;;;;;18.85;11.20;;;;;;;10.03;73.96;100646.22;4827037;29;19969;-62
2021/11/16 10:47:10;;;;;;;19.48;10.68;;;;;;;9.89;73.47;100652.78;4826852;29;20061;-62
2021/11/16 10:49:39;;;;;;;20.38;11.02;;;;;;;9.81;73.95;100644.16;4827035;29;20214;-62
2021/11/16 10:52:27;;;;;;;20.77;11.18;;;;;;;9.87;73.86;100644.25;4827055;29;20477;-62
2021/11/16 10:54:59;;;;;;;22.08;11.30;;;;;;;10.02;73.46;100629.22;4826979;29;20054;-62
2021/11/16 10:57:53;;;;;;;17.92;10.77;;;;;;;10.04;73.48;100635.19;4826876;29;20454;-62
2021/11/16 11:00:36;;;;;;;21.42;10.80;;;;;;;9.88;73.50;100600.09;4826285;29;20054;-62
2021/11/16 11:03:30;;;;;;;19.50;10.40;;;;;;;9.92;73.07;100627.34;4826913;29;20047;-61
2021/11/16 11:06:07;;;;;;;18.85;10.63;;;;;;;9.92;73.08;100632.44;4818331;29;20417;-62
2021/11/16 11:08:41;;;;;;;22.25;11.23;;;;;;;9.98;73.17;100622.38;4839471;29;20128;-62
2021/11/16 11:11:24;;;;;;;23.13;11.48;;;;;;;10.03;73.04;100626.69;4845221;29;20054;-62
2021/11/16 11:14:01;;;;;;;17.88;10.77;;;;;;;10.04;73.03;100628.41;4844869;29;20085;-62
2021/11/16 11:16:32;;;;;;;19.80;10.75;;;;;;;10.09;73.23;100629.34;4844606;29;20060;-62
2021/11/16 11:19:02;;;;;;;21.38;11.07;;;;;;;10.26;72.75;100623.69;4844541;29;20078;-62
2021/11/16 11:21:38;;;;;;;20.52;11.23;;;;;;;10.34;72.47;100620.41;4844987;29;20058;-62
2021/11/16 11:24:22;;;;;;;21.08;11.38;;;;;;;10.27;72.60;100618.59;4844348;29;20083;-62
2021/11/16 11:26:56;;;;;;;22.60;10.88;;;;;;;10.38;72.30;100619.63;4844439;29;20137;-62
2021/11/16 11:29:42;;;;;;;20.65;11.93;;;;;;;10.34;71.70;100611.91;4844585;29;20408;-62
2021/11/16 11:32:18;;;;;;;18.33;11.13;;;;;;;10.30;71.52;100615.22;4844225;29;20092;-62
2021/11/16 11:34:51;;;;;;;21.48;11.85;;;;;;;10.19;71.75;100617.63;4844225;29;20050;-62
2021/11/16 11:37:24;;;;;;;21.75;11.32;;;;;;;10.24;71.61;100616.03;4844200;29;20050;-62
2021/11/16 11:39:59;;;;;;;21.40;11.25;;;;;;;10.25;71.74;100607.50;4844191;29;20054;-62
2021/11/16 11:42:30;;;;;;;21.13;11.68;;;;;;;10.29;71.18;100613.53;4844149;29;20125;-62
2021/11/16 11:45:10;;;;;;;21.00;11.38;;;;;;;10.17;71.29;100583.59;4844178;29;20046;-62
2021/11/16 11:47:42;;;;;;;20.90;10.63;;;;;;;10.27;71.09;100603.28;4844459;29;20053;-62
2021/11/16 11:50:27;;;;;;;23.38;11.63;;;;;;;10.27;70.71;100600.72;4842771;29;20070;-62
2021/11/16 11:52:58;;;;;;;19.35;11.00;;;;;;;10.24;70.78;100600.72;4844022;29;20057;-62
2021/11/16 11:55:28;;;;;;;22.45;12.32;;;;;;;9.95;71.09;100551.78;4843950;29;20097;-62
2021/11/16 11:58:01;;;;;;;21.40;11.77;;;;;;;10.23;70.42;100593.88;4844060;29;20050;-62
2021/11/16 12:00:32;;;;;;;26.90;11.82;;;;;;;9.57;70.64;100472.97;4844292;29;20434;-62
2021/11/16 12:03:06;;;;;;;21.02;10.60;;;;;;;10.12;70.20;100564.81;4844126;29;20132;-62
2021/11/16 12:05:38;;;;;;;25.40;12.75;;;;;;;9.61;70.22;100485.78;4844066;29;20046;-62
2021/11/16 12:08:11;;;;;;;25.20;12.15;;;;;;;10.25;70.17;100587.09;4843854;29;20474;-62
2021/11/16 12:10:43;;;;;;;22.38;12.07;;;;;;;10.19;70.24;100584.47;4843432;29;20056;-62
2021/11/16 12:13:14;;;;;;;22.55;11.65;;;;;;;10.17;69.88;100583.59;4843911;29;20201;-62
2021/11/16 12:15:51;;;;;;;20.58;11.55;;;;;;;10.18;70.07;100580.19;4843747;29;20045;-62
2021/11/16 12:18:36;;;;;;;20.35;11.13;;;;;;;10.14;69.85;100586.09;4843484;29;20054;-62
2021/11/16 12:21:07;;;;;;;21.00;10.13;;;;;;;10.10;69.54;100581.75;4843573;29;20404;-62
2021/11/16 12:23:50;;;;;;;18.88;10.75;;;;;;;10.10;69.28;100579.22;4843555;29;20046;-62
2021/11/16 12:26:23;;;;;;;23.85;11.32;;;;;;;10.14;69.29;100568.25;4843236;29;20132;-62
2021/11/16 12:28:53;;;;;;;23.73;12.05;;;;;;;10.08;69.14;100570.66;4843235;29;20046;-62
2021/11/16 12:31:26;;;;;;;25.25;13.15;;;;;;;10.07;69.60;100568.94;4843130;29;20062;-62
2021/11/16 12:33:58;;;;;;;21.98;10.70;;;;;;;10.13;69.64;100575.84;4843407;29;20544;-62
2021/11/16 12:36:48;;;;;;;23.10;11.93;;;;;;;10.10;69.57;100561.34;4843178;29;20049;-62
2021/11/16 12:39:20;;;;;;;21.05;11.80;;;;;;;10.10;69.38;100566.44;4843127;29;20050;-62
2021/11/16 12:41:52;;;;;;;23.65;11.35;;;;;;;10.04;69.19;100558.69;4843416;29;20073;-62
2021/11/16 12:44:46;;;;;;;20.45;10.20;;;;;;;9.99;69.16;100567.97;4843298;29;20485;-62
2021/11/16 12:47:17;;;;;;;23.23;10.93;;;;;;;9.96;68.93;100570.44;4841734;29;20439;-62
2021/11/16 12:49:51;;;;;;;17.85;9.95;;;;;;;9.97;69.18;100554.31;4843001;29;20050;-62
2021/11/16 12:52:23;;;;;;;21.73;10.98;;;;;;;9.97;68.79;100559.44;4842894;29;20058;-62
2021/11/16 12:54:53;;;;;;;20.02;10.95;;;;;;;9.96;69.07;100558.56;4842928;29;20046;-62
2021/11/16 12:57:28;;;;;;;23.67;11.60;;;;;;;9.94;68.81;100556.81;4842848;29;20129;-62
2021/11/16 13:00:01;;;;;;;22.50;10.82;;;;;;;9.99;68.83;100547.56;4841503;29;20150;-62
2021/11/16 13:02:34;;;;;;;17.98;10.55;;;;;;;9.95;68.85;100551.78;4842930;29;20058;-62
2021/11/16 13:05:08;;;;;;;23.17;10.95;;;;;;;9.95;68.35;100540.69;4839464;29;20060;-63
2021/11/16 13:07:44;;;;;;;21.90;9.98;;;;;;;10.02;67.89;100527.22;4828265;29;20078;-62
2021/11/16 13:10:17;;;;;;;19.17;9.60;;;;;;;10.09;67.73;100534.13;4824771;29;20478;-62
2021/11/16 13:12:53;;;;;;;18.90;9.95;;;;;;;10.19;66.90;100520.69;4824701;29;20074;-62
2021/11/16 13:15:40;;;;;;;21.83;10.43;;;;;;;10.31;67.03;100523.44;4824766;29;20051;-62
2021/11/16 13:18:12;;;;;;;17.98;9.80;;;;;;;10.34;66.55;100515.78;4824938;29;20051;-62
2021/11/16 13:20:45;;;;;;;19.67;10.43;;;;;;;10.34;66.02;100514.94;4824633;29;20053;-62
2021/11/16 13:23:21;;;;;;;18.13;9.85;;;;;;;10.30;66.23;100514.03;4827331;29;20054;-62
2021/11/16 13:26:02;;;;;;;19.80;10.18;;;;;;;10.33;66.76;100514.09;4828172;29;20058;-62
2021/11/16 13:31:48;;;;;;;13.65;7.55;;;;;;;10.33;65.57;100511.53;4828234;29;20046;-62
2021/11/16 13:34:20;;;;;;;20.35;9.38;;;;;;;10.34;65.75;100500.47;4828129;29;20525;-62
2021/11/16 13:36:59;;;;;;;18.85;10.05;;;;;;;10.24;65.99;100498.66;4828063;29;20493;-62
2021/11/16 13:39:35;;;;;;;18.55;9.77;;;;;;;10.19;65.81;100492.63;4828024;29;20550;-62
2021/11/16 13:42:10;;;;;;;18.98;9.52;;;;;;;10.21;65.77;100488.41;4828220;29;20061;-62
2021/11/16 13:44:43;;;;;;;17.00;9.50;;;;;;;10.20;65.55;100486.69;4827939;29;20050;-62
2021/11/16 13:47:18;;;;;;;16.90;9.82;;;;;;;10.18;65.72;100483.25;4827850;29;20061;-62
2021/11/16 13:49:49;;;;;;;18.25;9.85;;;;;;;10.09;66.32;100483.09;4843710;29;20046;-62
2021/11/16 13:52:27;;;;;;;18.65;9.85;;;;;;;10.08;65.92;100483.94;4846185;29;20050;-62
2021/11/16 13:55:02;;;;;;;22.08;11.32;;;;;;;10.07;66.31;100479.69;4845989;29;20049;-62
2021/11/16 13:57:34;;;;;;;19.17;10.35;;;;;;;10.03;66.15;100477.91;4846081;29;20045;-62
2021/11/16 14:00:10;;;;;;;21.75;11.75;;;;;;;10.05;66.77;100471.16;4846095;29;20057;-62
2021/11/16 14:02:46;;;;;;;20.33;10.05;;;;;;;10.01;66.51;100464.28;4846665;29;20405;-62
2021/11/16 14:05:16;;;;;;;18.60;10.63;;;;;;;9.94;67.44;100470.13;4845509;29;20042;-62
2021/11/16 14:07:55;;;;;;;21.60;10.93;;;;;;;9.82;67.58;100467.41;4845534;29;20046;-62
2021/11/16 14:10:28;;;;;;;20.40;10.80;;;;;;;9.74;68.34;100463.91;4845646;29;20062;-62
2021/11/16 14:13:12;;;;;;;29.77;16.13;;;;;;;9.65;68.76;100463.72;4845753;29;20049;-62
2021/11/16 14:15:45;;;;;;;47.05;24.63;;;;;;;9.55;69.33;100461.91;4846265;29;20135;-62
2021/11/16 14:18:17;;;;;;;23.38;13.65;;;;;;;9.62;69.75;100464.53;4845758;29;20061;-62
2021/11/16 14:20:56;;;;;;;22.15;13.75;;;;;;;9.58;69.38;100461.91;4845041;29;20053;-62
2021/11/16 14:23:28;;;;;;;20.10;11.48;;;;;;;9.59;69.10;100461.09;4845668;29;20045;-62
2021/11/16 14:26:04;;;;;;;19.75;10.70;;;;;;;9.54;69.21;100460.16;4846019;29;20149;-62
2021/11/16 14:28:39;;;;;;;22.83;12.02;;;;;;;9.48;70.16;100450.72;4845500;29;20485;-62
2021/11/16 14:31:12;;;;;;;19.83;10.60;;;;;;;9.46;70.01;100454.94;4845318;29;20050;-62
2021/11/16 14:33:47;;;;;;;21.20;12.18;;;;;;;9.52;70.35;100452.50;4844736;29;20058;-62
2021/11/16 14:36:17;;;;;;;17.05;10.00;;;;;;;8.62;69.96;100304.16;4845659;29;20573;-62
2021/11/16 14:38:51;;;;;;;19.73;11.20;;;;;;;9.39;69.58;100440.41;4845564;29;20057;-62
2021/11/16 14:41:25;;;;;;;22.27;14.18;;;;;;;9.26;70.27;100441.03;4844580;29;20057;-62
2021/11/16 14:44:04;;;;;;;19.35;10.73;;;;;;;9.20;70.52;100444.34;4845256;29;20054;-62
2021/11/16 14:46:38;;;;;;;23.15;10.93;;;;;;;9.16;70.62;100449.34;4845010;29;20137;-62
2021/11/16 14:49:10;;;;;;;19.95;11.43;;;;;;;9.06;70.06;100440.69;4845038;29;20057;-62
2021/11/16 14:51:45;;;;;;;24.30;11.18;;;;;;;8.94;70.27;100440.47;4844828;29;20128;-62
2021/11/16 14:54:17;;;;;;;21.50;11.07;;;;;;;8.78;70.69;100423.22;4844945;29;20057;-61
2021/11/16 14:56:50;;;;;;;21.02;10.85;;;;;;;8.70;70.61;100438.34;4845348;29;20092;-62
2021/11/16 14:59:22;;;;;;;21.17;11.20;;;;;;;8.69;71.39;100428.13;4844476;29;20145;-62
2021/11/16 15:01:57;;;;;;;20.83;11.15;;;;;;;8.65;71.50;100431.44;4845318;29;20493;-62
2021/11/16 15:04:36;;;;;;;20.05;11.18;;;;;;;8.59;71.16;100431.34;4844910;29;20042;-62
2021/11/16 15:07:07;;;;;;;22.48;12.70;;;;;;;8.43;71.07;100430.16;4845049;29;20058;-62
2021/11/16 15:09:54;;;;;;;20.20;10.88;;;;;;;8.46;70.72;100420.06;4845370;29;20483;-62
2021/11/16 15:12:25;;;;;;;24.63;10.18;;;;;;;8.44;71.65;100425.94;4845029;29;20102;-62
2021/11/16 15:15:02;;;;;;;25.33;13.73;;;;;;;8.34;71.07;100429.13;4844768;29;20046;-62
2021/11/16 15:17:51;;;;;;;22.42;13.43;;;;;;;8.16;71.35;100428.75;4844848;29;20447;-61
2021/11/16 15:20:38;;;;;;;27.08;15.55;;;;;;;8.05;71.99;100431.91;4844639;29;20113;-62
2021/11/16 15:23:10;;;;;;;22.73;12.95;;;;;;;7.92;71.46;100429.91;4844656;29;20050;-62
2021/11/16 15:25:43;;;;;;;23.48;11.57;;;;;;;7.87;71.66;100423.88;4844522;29;20132;-62
2021/11/16 15:28:19;;;;;;;23.48;12.27;;;;;;;7.72;71.90;100422.69;4844551;29;20136;-62
2021/11/16 15:30:55;;;;;;;26.13;11.82;;;;;;;7.62;72.57;100424.16;4844429;29;20054;-62
2021/11/16 15:33:32;;;;;;;24.92;11.80;;;;;;;7.59;71.91;100419.00;4844392;29;20054;-62
2021/11/16 15:36:12;;;;;;;25.17;12.00;;;;;;;7.42;72.45;100410.13;4844378;29;20054;-62
2021/11/16 15:38:46;;;;;;;21.30;11.35;;;;;;;7.37;72.69;100426.94;4844567;29;20077;-62
2021/11/16 15:41:26;;;;;;;22.10;11.65;;;;;;;7.38;72.69;100418.50;4844623;29;20093;-62